Time;durP1;ratioP1;P1;durP2;ratioP2;P2;SDS_P1;SDS_P2;PMS_P1;PMS_P2;Temp;Humidity;BMP_temperature;BMP_pressure;BME280_temperature;BME280_humidity;BME280_pressure;Samples;Min_cycle;Max_cycle;Signal;HPM_P1;HPM_P2
2023/08/26 00:00:34;;;;;;;5.30;0.90;;;15.10;99.90;;;14.48;100.00;101000.47;4152863;28;20022;-75
2023/08/26 00:02:36;;;;;;;3.30;1.80;;;15.10;99.90;;;14.43;100.00;100992.19;4153011;28;20037;-75
2023/08/26 00:04:37;;;;;;;8.60;4.88;;;15.00;99.90;;;14.35;100.00;100984.28;4152831;28;20022;-75
2023/08/26 00:06:38;;;;;;;5.82;4.60;;;15.00;99.90;;;14.39;100.00;100996.19;4152838;28;20064;-75
2023/08/26 00:08:39;;;;;;;3.30;2.75;;;15.00;99.90;;;14.35;100.00;100994.88;4152559;28;20029;-75
2023/08/26 00:10:40;;;;;;;7.07;6.07;;;14.90;99.90;;;14.29;100.00;100985.78;4152923;28;20038;-75
2023/08/26 00:12:41;;;;;;;7.68;4.82;;;14.90;99.90;;;14.28;100.00;100993.88;4151535;28;20037;-75
2023/08/26 00:14:42;;;;;;;5.88;4.07;;;14.90;99.90;;;14.25;100.00;100989.75;4156635;28;20405;-75
2023/08/26 00:16:43;;;;;;;8.15;6.80;;;14.80;99.90;;;14.25;100.00;100978.31;4150675;28;20080;-75
2023/08/26 00:18:43;;;;;;;9.73;5.75;;;14.80;99.90;;;14.29;100.00;100985.78;4151615;28;20026;-75
2023/08/26 00:20:44;;;;;;;6.53;4.25;;;14.80;99.90;;;14.28;100.00;100988.59;4152757;28;20510;-75
2023/08/26 00:22:45;;;;;;;6.00;3.38;;;14.80;99.90;;;14.25;100.00;100980.97;4151583;28;20030;-75
2023/08/26 00:24:47;;;;;;;4.00;1.77;;;14.90;99.90;;;14.28;100.00;100991.22;4137604;28;20490;-75
2023/08/26 00:26:48;;;;;;;4.25;1.33;;;14.80;99.90;;;14.24;100.00;100985.47;4152787;28;20513;-75
2023/08/26 00:28:49;;;;;;;3.00;1.67;;;14.80;99.90;;;14.20;100.00;100986.81;4152626;28;20077;-75
2023/08/26 00:31:00;;;;;;;5.35;1.50;;;14.80;99.90;;;14.18;100.00;100982.69;4151417;28;20022;-75
2023/08/26 00:33:00;;;;;;;2.15;1.13;;;14.80;99.90;;;14.13;100.00;100988.50;4167455;28;20127;-75
2023/08/26 00:35:01;;;;;;;3.40;1.35;;;14.70;99.90;;;14.09;100.00;100983.72;4150115;28;20029;-75
2023/08/26 00:37:02;;;;;;;4.20;1.80;;;14.70;99.90;;;14.08;100.00;100990.00;4143959;28;20498;-75
2023/08/26 00:39:03;;;;;;;6.18;1.75;;;14.60;99.90;;;14.05;100.00;100983.22;4152256;28;20037;-75
2023/08/26 00:41:04;;;;;;;4.35;1.25;;;14.60;99.90;;;14.02;100.00;100982.75;4151064;28;20053;-75
2023/08/26 00:43:08;;;;;;;4.30;1.30;;;14.60;99.90;;;14.04;100.00;100981.56;4151309;28;20515;-75
2023/08/26 00:45:09;;;;;;;4.47;2.45;;;14.60;99.90;;;14.02;100.00;100980.91;4144536;28;20025;-75
2023/08/26 00:47:10;;;;;;;3.67;1.80;;;14.60;99.90;;;13.99;100.00;100973.31;4152371;28;20502;-75
2023/08/26 00:49:12;;;;;;;3.90;3.22;;;14.60;99.90;;;13.96;100.00;100973.66;4151069;28;20026;-75
2023/08/26 00:51:13;;;;;;;6.18;3.28;;;14.60;99.90;;;13.92;100.00;100974.97;4146611;28;20093;-75
2023/08/26 00:53:15;;;;;;;6.20;2.53;;;14.50;99.90;;;13.91;100.00;100976.00;4156152;28;20021;-75
2023/08/26 00:55:16;;;;;;;4.25;2.10;;;14.50;99.90;;;13.89;100.00;100967.38;4145858;28;20452;-75
2023/08/26 00:57:17;;;;;;;7.70;4.03;;;14.40;99.90;;;13.85;100.00;100976.69;4150928;28;20104;-74
2023/08/26 00:59:18;;;;;;;6.63;4.63;;;14.40;99.90;;;13.84;100.00;100969.72;4146688;28;20429;-75
2023/08/26 01:01:20;;;;;;;6.13;2.58;;;14.40;99.90;;;13.80;100.00;100961.28;4152317;28;20552;-74
2023/08/26 01:03:21;;;;;;;7.53;4.43;;;14.40;99.90;;;13.78;100.00;100965.94;4150270;28;20111;-75
2023/08/26 01:05:22;;;;;;;7.15;5.38;;;14.40;99.90;;;13.74;100.00;100963.78;4147986;28;20449;-75
2023/08/26 01:07:23;;;;;;;7.35;5.13;;;14.30;99.90;;;13.77;100.00;100976.69;4150923;28;20030;-75
2023/08/26 01:09:24;;;;;;;6.68;4.38;;;14.30;99.90;;;13.74;100.00;100966.44;4142401;28;20033;-75
2023/08/26 01:12:02;;;;;;;7.57;4.53;;;14.30;99.90;;;13.71;100.00;100969.41;4152196;28;20070;-75
2023/08/26 01:14:37;;;;;;;6.53;1.77;;;14.30;99.90;;;13.79;100.00;100972.91;4149715;28;20030;-75
2023/08/26 01:16:42;;;;;;;4.20;1.88;;;14.30;99.90;;;13.77;100.00;100964.28;4167216;28;20483;-75
2023/08/26 01:18:44;;;;;;;5.13;1.92;;;14.40;99.90;;;13.76;100.00;100959.97;4150860;28;20034;-75
2023/08/26 01:20:45;;;;;;;2.20;1.15;;;14.30;99.90;;;13.79;100.00;100972.06;4151052;28;20414;-75
2023/08/26 01:22:50;;;;;;;3.90;1.60;;;14.30;99.90;;;13.78;100.00;100962.44;4167249;28;20029;-75
2023/08/26 01:24:51;;;;;;;5.18;1.77;;;14.40;99.90;;;13.79;100.00;100964.94;4166605;28;20029;-75
2023/08/26 01:26:52;;;;;;;5.50;2.08;;;14.40;99.90;;;13.77;100.00;100952.84;4152206;28;20018;-75
2023/08/26 01:28:53;;;;;;;5.20;1.70;;;14.40;99.90;;;13.80;100.00;100957.78;4150768;28;20072;-75
2023/08/26 01:30:57;;;;;;;4.60;1.60;;;14.40;99.90;;;13.79;100.00;100956.16;4151999;28;20470;-75
2023/08/26 01:33:10;;;;;;;8.27;2.08;;;14.30;99.90;;;13.79;100.00;100954.34;4150676;28;20038;-75
2023/08/26 01:35:18;;;;;;;4.95;2.03;;;14.30;99.90;;;13.78;100.00;100949.19;4147176;28;20026;-75
2023/08/26 01:37:20;;;;;;;5.18;1.45;;;14.40;99.90;;;13.78;100.00;100954.50;4145848;28;20053;-75
2023/08/26 01:39:22;;;;;;;4.53;1.23;;;14.30;99.90;;;13.80;100.00;100952.50;4153712;28;20383;-75
2023/08/26 01:41:24;;;;;;;5.45;1.50;;;14.30;99.90;;;13.80;100.00;100963.09;4154050;28;20034;-75
2023/08/26 01:43:25;;;;;;;7.30;1.90;;;14.40;99.90;;;13.79;100.00;100957.00;4153377;28;20488;-75
2023/08/26 01:45:26;;;;;;;4.07;2.92;;;14.40;99.90;;;13.76;100.00;100961.81;4153892;28;20026;-75
2023/08/26 01:47:27;;;;;;;9.80;4.60;;;14.30;99.90;;;13.74;100.00;100959.31;4154981;28;20054;-75
2023/08/26 01:49:28;;;;;;;5.00;3.10;;;14.40;99.90;;;13.74;100.00;100959.31;4153633;28;20053;-75
2023/08/26 01:51:29;;;;;;;5.50;2.30;;;14.30;99.90;;;13.69;100.00;100945.75;4147083;28;20026;-75
2023/08/26 01:53:30;;;;;;;7.63;3.08;;;14.30;99.90;;;13.73;100.00;100951.53;4145768;28;20025;-75
2023/08/26 01:55:31;;;;;;;8.02;3.50;;;14.30;99.90;;;13.72;100.00;100955.19;4150356;28;20025;-75
2023/08/26 01:57:32;;;;;;;6.75;3.40;;;14.30;99.90;;;13.71;100.00;100953.50;4153814;28;20026;-75
2023/08/26 01:59:33;;;;;;;4.55;2.42;;;14.30;99.90;;;13.71;100.00;100956.16;4154899;28;20026;-75
2023/08/26 02:01:34;;;;;;;6.70;2.15;;;14.30;99.90;;;13.73;100.00;100940.94;4153695;28;20475;-75
2023/08/26 02:03:35;;;;;;;7.72;1.88;;;14.30;99.90;;;13.73;100.00;100952.38;4152806;28;20132;-75
2023/08/26 02:05:36;;;;;;;5.03;1.98;;;14.30;99.90;;;13.70;100.00;100939.47;4152824;28;20029;-75
2023/08/26 02:07:37;;;;;;;6.63;2.40;;;14.30;99.90;;;13.67;100.00;100938.97;4169871;28;20535;-75
2023/08/26 02:09:38;;;;;;;6.38;2.40;;;14.30;99.90;;;13.64;100.00;100936.66;4152377;28;20029;-75
2023/08/26 02:11:39;;;;;;;7.10;1.80;;;14.30;99.90;;;13.60;100.00;100930.03;4150229;28;20053;-75
2023/08/26 02:13:39;;;;;;;6.03;2.40;;;14.20;99.90;;;13.55;100.00;100930.56;4154134;28;20034;-75
2023/08/26 02:15:42;;;;;;;4.50;1.88;;;14.10;99.90;;;13.53;100.00;100929.09;4154672;28;20026;-75
2023/08/26 02:17:43;;;;;;;4.55;1.70;;;14.10;99.90;;;13.49;100.00;100923.28;4153370;28;20022;-75
2023/08/26 02:19:44;;;;;;;5.13;1.77;;;14.10;99.90;;;13.46;100.00;100936.06;4154593;28;20014;-75
2023/08/26 02:21:45;;;;;;;5.53;1.98;;;14.00;99.90;;;13.46;100.00;100928.09;4153208;28;20034;-75
2023/08/26 02:23:46;;;;;;;3.25;1.90;;;14.00;99.90;;;13.43;100.00;100928.44;4153256;28;20026;-75
2023/08/26 02:25:47;;;;;;;5.45;2.03;;;14.00;99.90;;;13.46;100.00;100922.78;4153211;28;20029;-75
2023/08/26 02:27:48;;;;;;;7.82;2.05;;;14.00;99.90;;;13.47;100.00;100919.16;4154469;28;20108;-75
2023/08/26 02:29:49;;;;;;;4.65;1.80;;;14.00;99.90;;;13.48;100.00;100920.78;4154299;28;20026;-75
2023/08/26 02:31:49;;;;;;;5.70;2.13;;;14.00;99.90;;;13.46;100.00;100912.19;4154520;28;20029;-75
2023/08/26 02:33:50;;;;;;;3.78;1.70;;;14.00;99.90;;;13.46;100.00;100909.56;4154308;28;20034;-75
2023/08/26 02:35:51;;;;;;;2.58;1.20;;;14.00;99.90;;;13.49;100.00;100911.84;4145360;28;20391;-75
2023/08/26 02:37:52;;;;;;;4.43;2.03;;;14.00;99.90;;;13.50;100.00;100914.31;4150278;28;20050;-75
2023/08/26 02:39:55;;;;;;;8.27;2.28;;;14.10;99.90;;;13.49;100.00;100906.56;4154182;28;20033;-75
2023/08/26 02:41:56;;;;;;;5.22;1.60;;;14.10;99.90;;;13.52;100.00;100911.53;4153037;28;20037;-75
2023/08/26 02:43:56;;;;;;;4.20;1.88;;;14.10;99.90;;;13.51;100.00;100910.69;4150116;28;20026;-75
2023/08/26 02:45:58;;;;;;;3.08;1.40;;;14.10;99.90;;;13.52;100.00;100911.53;4150286;28;20065;-75
2023/08/26 02:47:59;;;;;;;4.68;1.98;;;14.10;99.90;;;13.51;100.00;100904.56;4168014;28;20029;-75
2023/08/26 02:50:01;;;;;;;3.47;1.48;;;14.10;99.90;;;13.52;100.00;100898.25;4152919;28;20532;-75
2023/08/26 02:52:01;;;;;;;8.43;1.60;;;14.10;99.90;;;13.47;100.00;100898.75;4152551;28;20034;-75
2023/08/26 02:54:02;;;;;;;6.95;2.00;;;14.10;99.90;;;13.54;100.00;100897.09;4152483;28;20018;-75
2023/08/26 02:56:03;;;;;;;5.53;2.13;;;14.10;99.90;;;13.58;100.00;100900.22;4152869;28;20022;-75
2023/08/26 02:58:04;;;;;;;4.82;2.00;;;14.10;99.90;;;13.55;100.00;100892.63;4153967;28;20505;-75
2023/08/26 03:00:06;;;;;;;4.95;1.55;;;14.20;99.90;;;13.60;100.00;100893.75;4152716;28;20026;-75
2023/08/26 03:02:07;;;;;;;4.88;1.60;;;14.20;99.90;;;13.62;100.00;100894.41;4153239;28;20083;-75
2023/08/26 03:04:08;;;;;;;5.03;1.88;;;14.20;99.90;;;13.64;100.00;100892.44;4144631;28;20026;-75
2023/08/26 03:06:08;;;;;;;7.53;1.92;;;14.20;99.90;;;13.66;100.00;100886.94;4152740;28;20030;-75
2023/08/26 03:08:09;;;;;;;5.18;1.88;;;14.30;99.90;;;13.67;100.00;100899.22;4153554;28;20520;-75
2023/08/26 03:10:10;;;;;;;4.38;1.50;;;14.20;99.90;;;13.62;100.00;100897.06;4153661;28;20045;-75
2023/08/26 03:12:11;;;;;;;2.22;1.27;;;14.30;99.90;;;13.54;100.00;100886.50;4152594;28;20437;-75
2023/08/26 03:14:12;;;;;;;4.97;1.73;;;14.20;99.90;;;13.53;100.00;100890.13;4152605;28;20022;-75
2023/08/26 03:16:13;;;;;;;3.88;1.70;;;14.20;99.90;;;13.47;100.00;100892.66;4153674;28;20025;-75
2023/08/26 03:18:14;;;;;;;2.78;1.38;;;14.10;99.90;;;13.42;100.00;100890.50;4152370;28;20173;-75
2023/08/26 03:20:15;;;;;;;4.25;1.67;;;14.00;99.90;;;13.35;100.00;100888.72;4153671;28;20034;-75
2023/08/26 03:22:15;;;;;;;1.95;1.10;;;14.00;99.90;;;13.31;100.00;100888.22;4152520;28;20029;-75
2023/08/26 03:24:16;;;;;;;2.25;1.08;;;14.00;99.90;;;13.25;100.00;100880.97;4153338;28;20022;-75
2023/08/26 03:26:17;;;;;;;2.88;1.25;;;13.90;99.90;;;13.16;100.00;100871.38;4152275;28;20065;-75
2023/08/26 03:28:18;;;;;;;6.68;1.33;;;13.80;99.90;;;13.19;100.00;100882.47;4152485;28;20370;-74
2023/08/26 03:30:19;;;;;;;3.30;1.48;;;13.80;99.90;;;13.17;100.00;100883.66;4153598;28;20032;-75
2023/08/26 03:32:20;;;;;;;5.22;1.33;;;13.80;99.90;;;13.14;100.00;100878.69;4153434;28;20030;-75
2023/08/26 03:34:21;;;;;;;3.42;1.23;;;13.70;99.90;;;13.07;100.00;100873.19;4146954;28;20022;-75
2023/08/26 03:36:22;;;;;;;8.38;1.50;;;13.70;99.90;;;13.04;100.00;100873.53;4151038;28;20506;-75
2023/08/26 03:38:23;;;;;;;2.53;1.13;;;13.70;99.90;;;13.05;100.00;100879.66;4168277;28;20026;-75
2023/08/26 03:40:23;;;;;;;3.08;1.20;;;13.70;99.90;;;13.06;100.00;100879.47;4153002;28;20029;-75
2023/08/26 03:42:24;;;;;;;4.50;1.20;;;13.70;99.90;;;13.06;100.00;100876.84;4138054;28;20114;-75
2023/08/26 03:44:25;;;;;;;2.30;1.60;;;13.70;99.90;;;13.08;100.00;100872.22;4147596;28;20037;-75
2023/08/26 03:46:26;;;;;;;6.68;1.95;;;13.70;99.90;;;13.07;100.00;100872.38;4152166;28;20034;-75
2023/08/26 03:48:27;;;;;;;4.47;1.33;;;13.70;99.90;;;13.09;100.00;100878.34;4151936;28;20096;-75
2023/08/26 03:50:28;;;;;;;6.10;1.30;;;13.70;99.90;;;13.11;100.00;100879.81;4152095;28;20022;-75
2023/08/26 03:52:29;;;;;;;5.78;1.58;;;13.70;99.90;;;13.09;100.00;100878.34;4152926;28;20026;-75
2023/08/26 03:54:30;;;;;;;2.72;1.40;;;13.70;99.90;;;13.06;100.00;100868.06;4151719;28;20045;-75
2023/08/26 03:56:31;;;;;;;3.95;1.80;;;13.70;99.90;;;13.01;100.00;100871.22;4151779;28;20540;-75
2023/08/26 03:58:32;;;;;;;2.33;1.15;;;13.70;99.90;;;13.00;100.00;100874.03;4140836;28;20171;-75
2023/08/26 04:00:32;;;;;;;5.10;1.45;;;13.70;99.90;;;12.96;100.00;100860.28;4150481;28;20029;-74
2023/08/26 04:02:33;;;;;;;3.55;1.40;;;13.70;99.90;;;12.96;100.00;100867.44;4152989;28;20089;-75
2023/08/26 04:04:34;;;;;;;6.18;2.30;;;13.60;99.90;;;12.93;100.00;100867.75;4152863;28;20026;-75
2023/08/26 04:06:35;;;;;;;4.38;1.50;;;13.60;99.90;;;12.91;100.00;100867.91;4152975;28;20037;-75
2023/08/26 04:08:36;;;;;;;4.88;1.77;;;13.60;99.90;;;12.89;100.00;100869.91;4151368;28;20033;-75
2023/08/26 04:10:37;;;;;;;4.72;1.52;;;13.60;99.90;;;12.91;100.00;100875.03;4135456;28;20026;-75
2023/08/26 04:12:38;;;;;;;1.70;1.25;;;13.60;99.90;;;12.84;100.00;100855.53;4152920;28;20037;-75
2023/08/26 04:14:39;;;;;;;3.13;1.60;;;13.50;99.90;;;12.87;100.00;100855.19;4151647;28;20029;-75
2023/08/26 04:16:39;;;;;;;3.67;1.45;;;13.50;99.90;;;12.86;100.00;100856.19;4167821;28;20037;-75
2023/08/26 04:18:41;;;;;;;2.88;1.55;;;13.50;99.90;;;12.88;100.00;100862.97;4148633;28;20477;-75
2023/08/26 04:20:44;;;;;;;3.45;1.40;;;13.50;99.90;;;12.88;100.00;100859.47;4152775;28;20084;-75
2023/08/26 04:22:45;;;;;;;3.00;1.35;;;13.60;99.90;;;12.92;100.00;100863.44;4151489;28;20112;-75
2023/08/26 04:24:46;;;;;;;2.42;1.30;;;13.60;99.90;;;12.94;100.00;100856.16;4152464;28;20049;-75
2023/08/26 04:26:47;;;;;;;3.33;1.27;;;13.60;99.90;;;13.01;100.00;100868.56;4151886;28;20072;-75
2023/08/26 04:28:48;;;;;;;3.47;1.10;;;13.70;99.90;;;13.02;100.00;100862.25;4152722;28;20029;-75
2023/08/26 04:30:49;;;;;;;3.35;1.73;;;13.70;99.90;;;13.04;100.00;100870.88;4152623;28;20026;-75
2023/08/26 04:32:50;;;;;;;7.32;1.92;;;13.70;99.90;;;13.05;100.00;100855.81;4151351;28;20033;-74
2023/08/26 04:34:50;;;;;;;2.38;1.48;;;13.80;99.90;;;13.10;100.00;100864.94;4167505;28;20042;-75
2023/08/26 04:36:51;;;;;;;2.92;1.50;;;13.70;99.90;;;13.11;100.00;100871.88;4151252;28;20050;-75
2023/08/26 04:38:52;;;;;;;4.38;1.73;;;13.80;99.90;;;13.11;100.00;100877.16;4125927;28;20034;-74
2023/08/26 04:40:53;;;;;;;5.72;1.40;;;13.80;99.90;;;13.13;100.00;100869.91;4151126;28;20085;-75
2023/08/26 04:42:54;;;;;;;5.13;1.67;;;13.80;99.90;;;13.12;100.00;100868.25;4151598;28;20501;-74
2023/08/26 04:44:54;;;;;;;7.50;2.55;;;13.80;99.90;;;13.04;100.00;100864.75;4152572;28;20109;-75
2023/08/26 04:46:55;;;;;;;4.90;1.20;;;13.80;99.90;;;13.11;100.00;100871.06;4145680;28;20030;-74
2023/08/26 04:48:56;;;;;;;2.92;1.42;;;13.80;99.90;;;13.08;100.00;100866.13;4147092;28;20026;-74
2023/08/26 04:50:57;;;;;;;4.72;1.52;;;13.70;99.90;;;13.05;100.00;100864.56;4151046;28;20026;-74
2023/08/26 04:52:58;;;;;;;2.70;1.30;;;13.70;99.90;;;13.07;100.00;100870.56;4167384;28;20026;-75
2023/08/26 04:54:59;;;;;;;2.55;1.50;;;13.70;99.90;;;13.06;100.00;100862.75;4152421;28;20026;-74
2023/08/26 04:57:00;;;;;;;4.40;1.40;;;13.70;99.90;;;13.07;100.00;100857.31;4151060;28;20045;-74
2023/08/26 04:59:00;;;;;;;4.30;1.70;;;13.70;99.90;;;13.10;100.00;100854.34;4152177;28;20030;-75
2023/08/26 05:01:02;;;;;;;6.60;2.60;;;13.70;99.90;;;13.07;100.00;100864.41;4152373;28;20105;-75
2023/08/26 05:03:03;;;;;;;4.00;1.45;;;13.70;99.90;;;13.10;100.00;100862.28;4151013;28;20033;-74
2023/08/26 05:05:05;;;;;;;5.07;1.85;;;13.70;99.90;;;13.08;100.00;100864.25;4150988;28;20053;-74
2023/08/26 05:07:06;;;;;;;5.80;1.58;;;13.70;99.90;;;13.09;100.00;100860.63;4139333;28;20101;-74
2023/08/26 05:09:07;;;;;;;3.70;1.23;;;13.70;99.90;;;13.09;100.00;100862.44;4155423;28;20028;-74
2023/08/26 05:11:08;;;;;;;5.03;1.42;;;13.70;99.90;;;13.07;100.00;100870.56;4151617;28;20029;-74
2023/08/26 05:13:08;;;;;;;5.55;1.50;;;13.70;99.90;;;13.04;100.00;100868.22;4143784;28;20026;-74
2023/08/26 05:15:10;;;;;;;3.78;1.27;;;13.70;99.90;;;13.02;100.00;100864.91;4151948;28;20038;-74
2023/08/26 05:17:10;;;;;;;3.65;1.42;;;13.60;99.90;;;12.98;100.00;100855.66;4155664;28;20485;-74
2023/08/26 05:19:11;;;;;;;5.70;1.70;;;13.60;99.90;;;12.97;100.00;100859.31;4154378;28;20045;-74
2023/08/26 05:21:12;;;;;;;3.60;1.30;;;13.60;99.90;;;12.97;100.00;100864.59;4154283;28;20034;-74
2023/08/26 05:23:14;;;;;;;5.90;1.40;;;13.60;99.90;;;12.98;100.00;100873.38;4137621;28;20414;-75
2023/08/26 05:25:15;;;;;;;5.32;1.67;;;13.60;99.90;;;12.98;100.00;100874.22;4155540;28;20239;-74
2023/08/26 05:27:16;;;;;;;3.13;1.38;;;13.60;99.90;;;12.97;100.00;100864.59;4155416;28;20038;-74
2023/08/26 05:29:17;;;;;;;3.67;1.73;;;13.60;99.90;;;13.01;100.00;100873.88;4155309;28;20022;-74
2023/08/26 05:31:18;;;;;;;4.68;1.30;;;13.60;99.90;;;13.02;100.00;100872.06;4154987;28;20109;-74
2023/08/26 05:33:19;;;;;;;5.57;1.55;;;13.60;99.90;;;13.03;100.00;100877.16;4152539;28;20037;-74
2023/08/26 05:35:19;;;;;;;5.47;1.42;;;13.60;99.90;;;13.08;100.00;100877.50;4149278;28;20034;-74
2023/08/26 05:37:20;;;;;;;5.63;1.35;;;13.60;99.90;;;13.09;100.00;100879.16;4146857;28;20038;-74
2023/08/26 05:39:21;;;;;;;7.97;1.70;;;13.70;99.90;;;13.14;100.00;100879.47;4155013;28;20092;-75
2023/08/26 05:41:22;;;;;;;4.65;1.60;;;13.70;99.90;;;13.16;100.00;100881.97;4155043;28;20034;-75
2023/08/26 05:43:23;;;;;;;6.40;1.65;;;13.80;99.90;;;13.15;100.00;100878.50;4153963;28;20030;-75
2023/08/26 05:45:25;;;;;;;3.25;1.23;;;13.70;99.90;;;13.19;100.00;100885.13;4153851;28;20528;-74
2023/08/26 05:47:26;;;;;;;4.82;1.35;;;13.80;99.90;;;13.24;100.00;100890.72;4153856;28;20030;-74
2023/08/26 05:49:27;;;;;;;6.25;1.50;;;13.80;99.90;;;13.22;100.00;100884.78;4153666;28;20026;-75
2023/08/26 05:51:28;;;;;;;5.88;1.45;;;13.80;99.90;;;13.27;100.00;100890.38;4154039;28;20029;-74
2023/08/26 05:53:29;;;;;;;8.65;1.52;;;13.80;99.90;;;13.29;100.00;100891.03;4153510;28;20085;-75
2023/08/26 05:55:30;;;;;;;5.40;1.20;;;13.90;99.90;;;13.36;100.00;100893.00;4137672;28;20032;-75
2023/08/26 05:57:31;;;;;;;4.20;1.30;;;13.90;99.90;;;13.42;100.00;100894.97;4153376;28;20022;-75
2023/08/26 05:59:32;;;;;;;4.25;1.35;;;13.90;99.90;;;13.42;100.00;100884.38;4144658;28;20041;-74
2023/08/26 06:01:32;;;;;;;4.40;1.50;;;14.00;99.90;;;13.52;100.00;100892.97;4153709;28;20034;-75
2023/08/26 06:03:33;;;;;;;3.63;1.23;;;14.00;99.90;;;13.55;100.00;100889.97;4154666;28;20030;-74
2023/08/26 06:05:34;;;;;;;6.13;1.48;;;14.10;99.90;;;13.57;100.00;100893.28;4152947;28;20400;-75
2023/08/26 06:07:35;;;;;;;2.10;1.10;;;14.10;99.90;;;13.59;100.00;100899.25;4147185;28;20302;-75
2023/08/26 06:09:36;;;;;;;2.92;1.35;;;14.10;99.90;;;13.60;100.00;100901.72;4146972;28;20022;-75
2023/08/26 06:11:38;;;;;;;3.50;1.05;;;14.10;99.90;;;13.61;100.00;100897.25;4153108;28;20109;-75
2023/08/26 06:13:39;;;;;;;5.05;1.27;;;14.10;99.90;;;13.63;100.00;100900.53;4150310;28;20022;-75
2023/08/26 06:15:40;;;;;;;3.25;1.13;;;14.20;99.90;;;13.67;100.00;100901.84;4152573;28;20023;-74
2023/08/26 06:17:41;;;;;;;4.97;1.38;;;14.20;99.90;;;13.69;100.00;100891.91;4153736;28;20397;-74
2023/08/26 06:19:42;;;;;;;4.13;1.30;;;14.20;99.90;;;13.73;100.00;100891.41;4154025;28;20045;-75
2023/08/26 06:21:43;;;;;;;5.07;1.13;;;14.30;99.90;;;13.80;100.00;100888.84;4154286;28;20152;-75
2023/08/26 06:23:44;;;;;;;4.47;1.63;;;14.30;99.90;;;13.86;100.00;100880.22;4154248;28;20449;-74
2023/08/26 06:25:53;;;;;;;6.95;1.90;;;14.40;99.90;;;13.91;100.00;100877.03;4153271;28;20032;-73
2023/08/26 06:27:53;;;;;;;4.18;1.42;;;14.40;99.90;;;13.96;100.00;100880.00;4169587;28;20398;-74
2023/08/26 06:29:56;;;;;;;5.97;1.40;;;14.50;99.90;;;13.98;100.00;100888.63;4154320;28;20029;-74
2023/08/26 06:31:57;;;;;;;6.22;1.20;;;14.50;99.90;;;14.01;100.00;100885.63;4152468;28;20030;-74
2023/08/26 06:33:58;;;;;;;2.47;1.20;;;14.50;99.90;;;14.03;100.00;100879.13;4148933;28;20501;-74
2023/08/26 06:35:59;;;;;;;3.50;1.42;;;14.50;99.90;;;14.06;100.00;100877.97;4144238;28;20034;-74
2023/08/26 06:38:00;;;;;;;5.05;1.30;;;14.60;99.90;;;14.09;100.00;100877.59;4151856;28;20050;-74
2023/08/26 06:40:01;;;;;;;6.30;2.08;;;14.60;99.90;;;14.11;100.00;100884.38;4143586;28;20030;-74
2023/08/26 06:42:03;;;;;;;4.03;1.30;;;14.60;99.90;;;14.16;100.00;100875.88;4152759;28;20046;-74
2023/08/26 06:44:04;;;;;;;2.85;1.00;;;14.70;99.90;;;14.19;100.00;100880.84;4153110;28;20077;-74
2023/08/26 06:46:05;;;;;;;3.28;1.13;;;14.70;99.90;;;14.25;100.00;100880.13;4152809;28;20030;-74
2023/08/26 06:48:06;;;;;;;5.47;1.52;;;14.70;99.90;;;14.30;100.00;100864.53;4154255;28;20026;-74
2023/08/26 06:50:08;;;;;;;3.35;1.60;;;14.80;99.90;;;14.34;100.00;100869.31;4153115;28;20022;-75
2023/08/26 06:52:08;;;;;;;3.92;1.30;;;14.80;99.90;;;14.38;100.00;100870.63;4154135;28;20022;-74
2023/08/26 06:54:09;;;;;;;3.15;1.23;;;14.90;99.90;;;14.42;100.00;100868.47;4136249;28;20038;-75
2023/08/26 06:56:10;;;;;;;7.15;1.50;;;14.90;99.90;;;14.52;100.00;100873.50;4152952;28;20413;-74
2023/08/26 06:58:11;;;;;;;6.63;1.38;;;15.00;99.90;;;14.61;100.00;100883.06;4154066;28;20084;-74
2023/08/26 07:00:13;;;;;;;5.70;1.33;;;15.10;99.90;;;14.69;100.00;100881.19;4152281;28;20417;-75
2023/08/26 07:02:15;;;;;;;4.78;1.20;;;15.20;99.90;;;14.83;100.00;100876.91;4151196;28;20108;-74
2023/08/26 07:04:16;;;;;;;4.85;1.40;;;15.30;99.90;;;15.08;100.00;100883.63;4131647;28;20109;-74
2023/08/26 07:06:16;;;;;;;5.38;1.80;;;15.50;99.90;;;15.32;100.00;100879.88;4149240;28;20489;-74
2023/08/26 07:08:18;;;;;;;2.40;1.20;;;15.70;99.90;;;15.58;100.00;100879.44;4152418;28;20486;-75
2023/08/26 07:10:19;;;;;;;4.55;2.15;;;15.90;99.90;;;15.66;100.00;100874.84;4153671;28;20112;-74
2023/08/26 07:12:20;;;;;;;4.82;1.40;;;16.00;99.90;;;15.75;100.00;100880.88;4149956;28;20098;-74
2023/08/26 07:14:21;;;;;;;4.07;0.90;;;16.10;99.90;;;15.78;100.00;100873.34;4160295;28;20033;-74
2023/08/26 07:16:22;;;;;;;3.13;0.80;;;16.20;99.90;;;15.92;100.00;100875.16;4147539;28;20022;-74
2023/08/26 07:18:23;;;;;;;6.13;1.17;;;16.30;99.90;;;15.99;100.00;100872.56;4153534;28;20029;-74
2023/08/26 07:20:24;;;;;;;3.05;1.00;;;16.40;99.90;;;16.05;100.00;100877.13;4152571;28;20033;-74
2023/08/26 07:22:25;;;;;;;5.68;1.52;;;16.40;99.90;;;16.03;100.00;100881.84;4149131;28;20018;-75
2023/08/26 07:24:26;;;;;;;8.50;1.10;;;16.50;99.90;;;16.00;100.00;100871.56;4146658;28;20048;-74
2023/08/26 07:26:27;;;;;;;5.30;1.00;;;16.50;99.90;;;16.01;100.00;100873.19;4152450;28;20025;-75
2023/08/26 07:28:28;;;;;;;3.25;0.95;;;16.50;99.90;;;16.08;100.00;100866.13;4147776;28;20038;-74
2023/08/26 07:30:30;;;;;;;3.92;1.15;;;16.50;99.90;;;16.22;100.00;100870.56;4148479;28;20101;-75
2023/08/26 07:32:31;;;;;;;4.80;1.35;;;16.60;99.90;;;16.33;100.00;100867.41;4151389;28;20504;-75
2023/08/26 07:34:32;;;;;;;5.40;0.90;;;16.70;99.90;;;16.39;100.00;100868.50;4150997;28;20068;-75
2023/08/26 07:36:33;;;;;;;5.97;1.10;;;16.70;99.90;;;16.41;100.00;100874.44;4140279;28;20046;-75
2023/08/26 07:38:37;;;;;;;6.75;1.00;;;16.80;99.90;;;16.36;100.00;100872.38;4152537;28;20517;-75
2023/08/26 07:40:37;;;;;;;4.90;0.90;;;16.80;99.90;;;16.34;100.00;100870.88;4146072;28;20125;-76
2023/08/26 07:42:38;;;;;;;5.55;1.27;;;16.80;99.90;;;16.33;100.00;100871.91;4138520;28;20088;-75
2023/08/26 07:44:39;;;;;;;3.65;1.30;;;16.80;99.90;;;16.29;100.00;100876.78;4151158;28;20018;-75
2023/08/26 07:46:40;;;;;;;7.60;1.75;;;16.80;99.90;;;16.24;100.00;100875.72;4152937;28;20026;-75
2023/08/26 07:48:41;;;;;;;3.90;1.10;;;16.80;99.90;;;16.27;100.00;100888.66;4150012;28;20513;-75
2023/08/26 07:50:42;;;;;;;4.85;1.20;;;16.80;99.90;;;16.27;100.00;100878.81;4152046;28;20485;-75
2023/08/26 07:52:43;;;;;;;4.13;1.20;;;16.80;99.90;;;16.30;100.00;100873.13;4139374;28;20030;-74
2023/08/26 07:54:44;;;;;;;6.78;1.10;;;16.80;99.90;;;16.34;100.00;100879.69;4151757;28;20030;-75
2023/08/26 07:56:45;;;;;;;4.25;0.82;;;16.90;99.90;;;16.48;100.00;100883.31;4149983;28;20057;-75
2023/08/26 07:58:45;;;;;;;6.15;0.77;;;17.00;99.90;;;16.56;100.00;100878.72;4149157;28;20497;-76
2023/08/26 08:00:46;;;;;;;5.45;1.08;;;17.10;99.90;;;16.71;100.00;100881.31;4132408;28;20092;-77
2023/08/26 08:02:47;;;;;;;3.72;1.23;;;17.10;99.90;;;16.89;100.00;100879.00;4147949;28;20042;-79
2023/08/26 08:04:48;;;;;;;2.67;0.93;;;17.30;99.90;;;17.15;100.00;100883.66;4144193;28;20030;-79
2023/08/26 08:06:49;;;;;;;6.35;0.77;;;17.50;99.90;;;17.35;100.00;100875.81;4150780;28;20383;-77
2023/08/26 08:08:51;;;;;;;4.57;0.93;;;17.70;99.90;;;17.55;100.00;100882.09;4148235;28;20022;-78
2023/08/26 08:10:52;;;;;;;6.25;1.00;;;17.80;99.90;;;17.56;100.00;100870.41;4133198;28;20046;-77
2023/08/26 08:12:53;;;;;;;4.78;0.70;;;18.00;99.90;;;17.61;100.00;100878.63;4147738;28;20426;-78
2023/08/26 08:14:54;;;;;;;4.18;0.77;;;18.00;99.90;;;17.62;100.00;100877.63;4131258;28;20122;-77
2023/08/26 08:16:54;;;;;;;5.22;1.00;;;18.00;99.90;;;17.64;100.00;100883.56;4135658;28;20026;-78
2023/08/26 08:18:55;;;;;;;3.80;0.90;;;18.10;99.90;;;17.65;100.00;100885.25;4151093;28;20030;-77